Estación Meteorológica Peña el Pijo (Robertgarden) [ 02/03/23 04:47:39 CET ]

Fecha Hora Presion(HPa) Temp (°C) Humedad % Rocio (°C) Viento ( m/s) Direccion Lluvia 1Hora(mm) Lluvia 24H(mm) LLuvia Total(mm)
2010-Nov-15 01:01:14 1004.200 10.1 79 6.6         2.07
2010-Nov-15 02:03:17 1004.200 8.9 78 5.2         2.07
2010-Nov-15 03:01:14 1005.000 7.9 76 3.9         2.07
2010-Nov-15 04:01:14 1005.200 6.6 79 3.2         2.07
2010-Nov-15 05:01:14 1005.400 5.9 75 1.8         2.07
2010-Nov-15 06:01:11 1005.800 5.7 74 1.4         2.07
2010-Nov-15 07:01:14 1005.900 5.0 77 1.3         2.07
2010-Nov-15 08:01:11 1006.900 5.1 69 -0.1         2.07
2010-Nov-15 09:01:15 1008.300 5.6 69 0.4         2.07
2010-Nov-15 10:01:18 1009.400 8.9 58 1.1         2.07
2010-Nov-15 11:01:13 1010.400 7.8 55 -0.7 1.6 ESE     2.07
2010-Nov-15 12:01:13 1010.900 9.8 49 -0.4         2.07
2010-Nov-15 13:01:13 1010.900 10.8 46 -0.4         2.07
2010-Nov-15 14:01:12 1010.700 11.9 43 -0.4 1.0 SW     2.07
2010-Nov-15 15:01:14 1011.200 9.9 43 -2.2         2.07
2010-Nov-15 16:01:13 1011.600 10.5 43 -1.6 0.7 S     2.07
2010-Nov-15 17:01:16 1011.900 7.3 50 -2.4         2.07
2010-Nov-15 18:01:13 1012.900 5.7 56 -2.5         2.07
2010-Nov-15 19:01:14 1013.900 4.8 62 -1.9         2.07
2010-Nov-15 20:01:13 1014.200 4.3 65 -1.8         2.07
2010-Nov-15 21:01:11 1014.600 3.8 69 -1.4         2.07
2010-Nov-15 22:01:13 1014.900 2.9 73 -1.5         2.07
2010-Nov-15 23:01:12 1015.600 2.2 77 -1.4         2.07

Temperatura Máxima:11°    Temperatura Mínima:
Presión Máxima:1015.600 Hpa    Presión Mínima:1004.200 Hpa


Volver